sensor_id;sensor_type;location;lat;lon;timestamp;temperature;humidity
59282;DHT22;45054;52.062;10.010;2024-01-15T00:00:35;1.80;99.90
59282;DHT22;45054;52.062;10.010;2024-01-15T00:03:01;1.80;99.90
59282;DHT22;45054;52.062;10.010;2024-01-15T00:05:26;1.80;99.90
59282;DHT22;45054;52.062;10.010;2024-01-15T00:07:52;1.80;99.90
59282;DHT22;45054;52.062;10.010;2024-01-15T00:10:17;1.80;99.90
59282;DHT22;45054;52.062;10.010;2024-01-15T00:12:43;1.80;99.90
59282;DHT22;45054;52.062;10.010;2024-01-15T00:15:10;1.80;99.90
59282;DHT22;45054;52.062;10.010;2024-01-15T00:17:35;1.70;99.90
59282;DHT22;45054;52.062;10.010;2024-01-15T00:20:01;1.70;99.90
59282;DHT22;45054;52.062;10.010;2024-01-15T00:22:26;1.60;99.90
59282;DHT22;45054;52.062;10.010;2024-01-15T00:24:52;1.60;99.90
59282;DHT22;45054;52.062;10.010;2024-01-15T00:27:18;1.60;99.90
59282;DHT22;45054;52.062;10.010;2024-01-15T00:29:43;1.60;99.90
59282;DHT22;45054;52.062;10.010;2024-01-15T00:32:11;1.60;99.90
59282;DHT22;45054;52.062;10.010;2024-01-15T00:34:37;1.60;99.90
59282;DHT22;45054;52.062;10.010;2024-01-15T00:37:02;1.60;99.90
59282;DHT22;45054;52.062;10.010;2024-01-15T00:39:28;1.60;99.90
59282;DHT22;45054;52.062;10.010;2024-01-15T00:41:54;1.50;99.90
59282;DHT22;45054;52.062;10.010;2024-01-15T00:44:19;1.60;99.90
59282;DHT22;45054;52.062;10.010;2024-01-15T00:46:45;1.60;99.90
59282;DHT22;45054;52.062;10.010;2024-01-15T00:49:12;1.60;99.90
59282;DHT22;45054;52.062;10.010;2024-01-15T00:51:38;1.50;99.90
59282;DHT22;45054;52.062;10.010;2024-01-15T00:54:04;1.50;99.90
59282;DHT22;45054;52.062;10.010;2024-01-15T00:56:31;1.60;99.90
59282;DHT22;45054;52.062;10.010;2024-01-15T00:58:56;1.50;99.90
59282;DHT22;45054;52.062;10.010;2024-01-15T01:01:22;1.50;99.90
59282;DHT22;45054;52.062;10.010;2024-01-15T01:03:47;1.60;99.90
59282;DHT22;45054;52.062;10.010;2024-01-15T01:06:14;1.50;99.90
59282;DHT22;45054;52.062;10.010;2024-01-15T01:08:40;1.50;99.90
59282;DHT22;45054;52.062;10.010;2024-01-15T01:11:05;1.60;99.90
59282;DHT22;45054;52.062;10.010;2024-01-15T01:13:31;1.50;99.90
59282;DHT22;45054;52.062;10.010;2024-01-15T01:15:57;1.50;99.90
59282;DHT22;45054;52.062;10.010;2024-01-15T01:18:22;1.50;99.90
59282;DHT22;45054;52.062;10.010;2024-01-15T01:20:48;1.50;99.90
59282;DHT22;45054;52.062;10.010;2024-01-15T01:23:15;1.50;99.90
59282;DHT22;45054;52.062;10.010;2024-01-15T01:25:40;1.50;99.90
59282;DHT22;45054;52.062;10.010;2024-01-15T01:28:06;1.40;99.90
59282;DHT22;45054;52.062;10.010;2024-01-15T01:30:31;1.40;99.90
59282;DHT22;45054;52.062;10.010;2024-01-15T01:32:57;1.40;99.90
59282;DHT22;45054;52.062;10.010;2024-01-15T01:35:23;1.50;99.90
59282;DHT22;45054;52.062;10.010;2024-01-15T01:37:48;1.50;99.90
59282;DHT22;45054;52.062;10.010;2024-01-15T01:40:15;1.60;99.90
59282;DHT22;45054;52.062;10.010;2024-01-15T01:42:41;1.60;99.90
59282;DHT22;45054;52.062;10.010;2024-01-15T01:45:07;1.50;99.90
59282;DHT22;45054;52.062;10.010;2024-01-15T01:47:33;1.50;99.90
59282;DHT22;45054;52.062;10.010;2024-01-15T01:49:59;1.50;99.90
59282;DHT22;45054;52.062;10.010;2024-01-15T01:52:24;1.60;99.90
59282;DHT22;45054;52.062;10.010;2024-01-15T01:54:51;1.50;99.90
59282;DHT22;45054;52.062;10.010;2024-01-15T01:57:18;1.50;99.90
59282;DHT22;45054;52.062;10.010;2024-01-15T01:59:45;1.40;99.90
59282;DHT22;45054;52.062;10.010;2024-01-15T02:02:12;1.40;99.90
59282;DHT22;45054;52.062;10.010;2024-01-15T02:04:37;1.50;99.90
59282;DHT22;45054;52.062;10.010;2024-01-15T02:07:03;1.50;99.90
59282;DHT22;45054;52.062;10.010;2024-01-15T02:09:29;1.50;99.90
59282;DHT22;45054;52.062;10.010;2024-01-15T02:11:55;1.50;99.90
59282;DHT22;45054;52.062;10.010;2024-01-15T02:14:22;1.50;99.90
59282;DHT22;45054;52.062;10.010;2024-01-15T02:16:47;1.60;99.90
59282;DHT22;45054;52.062;10.010;2024-01-15T02:19:15;1.60;99.90
59282;DHT22;45054;52.062;10.010;2024-01-15T02:21:40;1.60;99.90
59282;DHT22;45054;52.062;10.010;2024-01-15T02:24:07;1.60;99.90
59282;DHT22;45054;52.062;10.010;2024-01-15T02:26:33;1.60;99.90
59282;DHT22;45054;52.062;10.010;2024-01-15T02:28:58;1.60;99.90
59282;DHT22;45054;52.062;10.010;2024-01-15T02:31:24;1.60;99.90
59282;DHT22;45054;52.062;10.010;2024-01-15T02:33:50;1.60;99.90
59282;DHT22;45054;52.062;10.010;2024-01-15T02:36:15;1.60;99.90
59282;DHT22;45054;52.062;10.010;2024-01-15T02:38:41;1.60;99.90
59282;DHT22;45054;52.062;10.010;2024-01-15T02:41:08;1.60;99.90
59282;DHT22;45054;52.062;10.010;2024-01-15T02:43:34;1.70;99.90
59282;DHT22;45054;52.062;10.010;2024-01-15T02:45:59;1.70;99.90
59282;DHT22;45054;52.062;10.010;2024-01-15T02:48:25;1.80;99.90
59282;DHT22;45054;52.062;10.010;2024-01-15T02:50:50;1.80;99.90
59282;DHT22;45054;52.062;10.010;2024-01-15T02:53:16;1.80;99.90
59282;DHT22;45054;52.062;10.010;2024-01-15T02:55:43;1.80;99.90
59282;DHT22;45054;52.062;10.010;2024-01-15T02:58:10;1.80;99.90
59282;DHT22;45054;52.062;10.010;2024-01-15T03:00:36;1.90;99.90
59282;DHT22;45054;52.062;10.010;2024-01-15T03:03:01;1.80;99.90
59282;DHT22;45054;52.062;10.010;2024-01-15T03:05:27;1.80;99.90
59282;DHT22;45054;52.062;10.010;2024-01-15T03:07:53;1.80;99.90
59282;DHT22;45054;52.062;10.010;2024-01-15T03:10:18;1.80;99.90
59282;DHT22;45054;52.062;10.010;2024-01-15T03:12:44;1.80;99.90
59282;DHT22;45054;52.062;10.010;2024-01-15T03:15:11;1.80;99.90
59282;DHT22;45054;52.062;10.010;2024-01-15T03:17:36;1.80;99.90
59282;DHT22;45054;52.062;10.010;2024-01-15T03:20:02;1.90;99.90
59282;DHT22;45054;52.062;10.010;2024-01-15T03:22:29;1.90;99.90
59282;DHT22;45054;52.062;10.010;2024-01-15T03:24:55;1.90;99.90
59282;DHT22;45054;52.062;10.010;2024-01-15T03:27:20;1.90;99.90
59282;DHT22;45054;52.062;10.010;2024-01-15T03:29:46;1.90;99.90
59282;DHT22;45054;52.062;10.010;2024-01-15T03:32:13;1.90;99.90
59282;DHT22;45054;52.062;10.010;2024-01-15T03:34:38;1.90;99.90
59282;DHT22;45054;52.062;10.010;2024-01-15T03:37:04;1.90;99.90
59282;DHT22;45054;52.062;10.010;2024-01-15T03:39:29;1.90;99.90
59282;DHT22;45054;52.062;10.010;2024-01-15T03:41:55;1.90;99.90
59282;DHT22;45054;52.062;10.010;2024-01-15T03:44:21;1.90;99.90
59282;DHT22;45054;52.062;10.010;2024-01-15T03:46:46;1.90;99.90
59282;DHT22;45054;52.062;10.010;2024-01-15T03:49:13;1.90;99.90
59282;DHT22;45054;52.062;10.010;2024-01-15T03:51:39;1.90;99.90
59282;DHT22;45054;52.062;10.010;2024-01-15T03:54:04;1.90;99.90
59282;DHT22;45054;52.062;10.010;2024-01-15T03:56:30;1.90;99.90
59282;DHT22;45054;52.062;10.010;2024-01-15T03:58:55;1.90;99.90
59282;DHT22;45054;52.062;10.010;2024-01-15T04:01:21;1.90;99.90
59282;DHT22;45054;52.062;10.010;2024-01-15T04:03:47;2.00;99.90
59282;DHT22;45054;52.062;10.010;2024-01-15T04:06:16;1.90;99.90
59282;DHT22;45054;52.062;10.010;2024-01-15T04:08:41;2.00;99.90
59282;DHT22;45054;52.062;10.010;2024-01-15T04:11:07;2.00;99.90
59282;DHT22;45054;52.062;10.010;2024-01-15T04:13:33;2.00;99.90
59282;DHT22;45054;52.062;10.010;2024-01-15T04:15:59;2.00;99.90
59282;DHT22;45054;52.062;10.010;2024-01-15T04:18:25;1.90;99.90
59282;DHT22;45054;52.062;10.010;2024-01-15T04:20:50;2.00;99.90
59282;DHT22;45054;52.062;10.010;2024-01-15T04:23:17;1.90;99.90
59282;DHT22;45054;52.062;10.010;2024-01-15T04:25:43;1.90;99.90
59282;DHT22;45054;52.062;10.010;2024-01-15T04:28:09;1.90;99.90
59282;DHT22;45054;52.062;10.010;2024-01-15T04:30:34;1.90;99.90
59282;DHT22;45054;52.062;10.010;2024-01-15T04:33:00;1.90;99.90
59282;DHT22;45054;52.062;10.010;2024-01-15T04:35:26;1.90;99.90
59282;DHT22;45054;52.062;10.010;2024-01-15T04:37:52;2.00;99.90
59282;DHT22;45054;52.062;10.010;2024-01-15T04:40:19;2.00;99.90
59282;DHT22;45054;52.062;10.010;2024-01-15T04:42:44;2.00;99.90
59282;DHT22;45054;52.062;10.010;2024-01-15T04:45:10;2.00;99.90
59282;DHT22;45054;52.062;10.010;2024-01-15T04:47:35;2.00;99.90
59282;DHT22;45054;52.062;10.010;2024-01-15T04:50:01;2.00;99.90
59282;DHT22;45054;52.062;10.010;2024-01-15T04:52:27;2.00;99.90
59282;DHT22;45054;52.062;10.010;2024-01-15T04:54:52;2.00;99.90
59282;DHT22;45054;52.062;10.010;2024-01-15T04:57:19;2.00;99.90
59282;DHT22;45054;52.062;10.010;2024-01-15T04:59:45;2.00;99.90
59282;DHT22;45054;52.062;10.010;2024-01-15T05:02:10;2.00;99.90
59282;DHT22;45054;52.062;10.010;2024-01-15T05:04:36;1.90;99.90
59282;DHT22;45054;52.062;10.010;2024-01-15T05:07:02;2.00;99.90
59282;DHT22;45054;52.062;10.010;2024-01-15T05:09:27;1.90;99.90
59282;DHT22;45054;52.062;10.010;2024-01-15T05:11:53;2.00;99.90
59282;DHT22;45054;52.062;10.010;2024-01-15T05:14:20;2.00;99.90
59282;DHT22;45054;52.062;10.010;2024-01-15T05:16:47;2.10;99.90
59282;DHT22;45054;52.062;10.010;2024-01-15T05:19:12;2.00;99.90
59282;DHT22;45054;52.062;10.010;2024-01-15T05:21:38;1.90;99.90
59282;DHT22;45054;52.062;10.010;2024-01-15T05:24:04;1.90;99.90
59282;DHT22;45054;52.062;10.010;2024-01-15T05:26:29;1.80;99.90
59282;DHT22;45054;52.062;10.010;2024-01-15T05:28:55;1.60;99.90
59282;DHT22;45054;52.062;10.010;2024-01-15T05:31:22;1.60;99.90
59282;DHT22;45054;52.062;10.010;2024-01-15T05:33:47;1.50;99.90
59282;DHT22;45054;52.062;10.010;2024-01-15T05:36:13;1.50;99.90
59282;DHT22;45054;52.062;10.010;2024-01-15T05:38:39;1.50;99.90
59282;DHT22;45054;52.062;10.010;2024-01-15T05:41:05;1.50;99.90
59282;DHT22;45054;52.062;10.010;2024-01-15T05:43:30;1.50;99.90
59282;DHT22;45054;52.062;10.010;2024-01-15T05:45:56;1.60;99.90
59282;DHT22;45054;52.062;10.010;2024-01-15T05:48:23;1.60;99.90
59282;DHT22;45054;52.062;10.010;2024-01-15T05:50:48;1.50;99.90
59282;DHT22;45054;52.062;10.010;2024-01-15T05:53:14;1.50;99.90
59282;DHT22;45054;52.062;10.010;2024-01-15T05:55:39;1.50;99.90
59282;DHT22;45054;52.062;10.010;2024-01-15T05:58:05;1.50;99.90
59282;DHT22;45054;52.062;10.010;2024-01-15T06:00:31;1.50;99.90
59282;DHT22;45054;52.062;10.010;2024-01-15T06:02:57;1.60;99.90
59282;DHT22;45054;52.062;10.010;2024-01-15T06:05:23;1.60;99.90
59282;DHT22;45054;52.062;10.010;2024-01-15T06:07:49;1.60;99.90
59282;DHT22;45054;52.062;10.010;2024-01-15T06:10:15;1.60;99.90
59282;DHT22;45054;52.062;10.010;2024-01-15T06:12:40;1.60;99.90
59282;DHT22;45054;52.062;10.010;2024-01-15T06:15:07;1.60;99.90
59282;DHT22;45054;52.062;10.010;2024-01-15T06:17:32;1.50;99.90
59282;DHT22;45054;52.062;10.010;2024-01-15T06:19:58;1.50;99.90
59282;DHT22;45054;52.062;10.010;2024-01-15T06:22:25;1.60;99.90
59282;DHT22;45054;52.062;10.010;2024-01-15T06:24:50;1.70;99.90
59282;DHT22;45054;52.062;10.010;2024-01-15T06:27:16;1.70;99.90
59282;DHT22;45054;52.062;10.010;2024-01-15T06:29:45;1.60;99.90
59282;DHT22;45054;52.062;10.010;2024-01-15T06:32:10;1.40;99.90
59282;DHT22;45054;52.062;10.010;2024-01-15T06:34:36;1.30;99.90
59282;DHT22;45054;52.062;10.010;2024-01-15T06:37:02;1.30;99.90
59282;DHT22;45054;52.062;10.010;2024-01-15T06:39:29;1.30;99.90
59282;DHT22;45054;52.062;10.010;2024-01-15T06:41:54;1.40;99.90
59282;DHT22;45054;52.062;10.010;2024-01-15T06:44:20;1.40;99.90
59282;DHT22;45054;52.062;10.010;2024-01-15T06:46:46;1.40;99.90
59282;DHT22;45054;52.062;10.010;2024-01-15T06:49:11;1.40;99.90
59282;DHT22;45054;52.062;10.010;2024-01-15T06:51:37;1.50;99.90
59282;DHT22;45054;52.062;10.010;2024-01-15T06:54:04;1.50;99.90
59282;DHT22;45054;52.062;10.010;2024-01-15T06:56:31;1.50;99.90
59282;DHT22;45054;52.062;10.010;2024-01-15T06:58:56;1.50;99.90
59282;DHT22;45054;52.062;10.010;2024-01-15T07:01:22;1.50;99.90
59282;DHT22;45054;52.062;10.010;2024-01-15T07:03:48;1.60;99.90
59282;DHT22;45054;52.062;10.010;2024-01-15T07:06:13;1.60;99.90
59282;DHT22;45054;52.062;10.010;2024-01-15T07:08:40;1.60;99.90
59282;DHT22;45054;52.062;10.010;2024-01-15T07:11:06;1.60;99.90
59282;DHT22;45054;52.062;10.010;2024-01-15T07:13:33;1.60;99.90
59282;DHT22;45054;52.062;10.010;2024-01-15T07:15:59;1.60;99.90
59282;DHT22;45054;52.062;10.010;2024-01-15T07:18:24;1.70;99.90
59282;DHT22;45054;52.062;10.010;2024-01-15T07:20:50;1.60;99.90
59282;DHT22;45054;52.062;10.010;2024-01-15T07:23:16;1.60;99.90
59282;DHT22;45054;52.062;10.010;2024-01-15T07:25:41;1.60;99.90
59282;DHT22;45054;52.062;10.010;2024-01-15T07:28:07;1.60;99.90
59282;DHT22;45054;52.062;10.010;2024-01-15T07:30:34;1.60;99.90
59282;DHT22;45054;52.062;10.010;2024-01-15T07:32:59;1.60;99.90
59282;DHT22;45054;52.062;10.010;2024-01-15T07:35:25;1.60;99.90
59282;DHT22;45054;52.062;10.010;2024-01-15T07:37:51;1.60;99.90
59282;DHT22;45054;52.062;10.010;2024-01-15T07:40:16;1.40;99.90
59282;DHT22;45054;52.062;10.010;2024-01-15T07:42:42;1.40;99.90
59282;DHT22;45054;52.062;10.010;2024-01-15T07:45:08;1.50;99.90
59282;DHT22;45054;52.062;10.010;2024-01-15T07:47:35;1.50;99.90
59282;DHT22;45054;52.062;10.010;2024-01-15T07:50:00;1.50;99.90
59282;DHT22;45054;52.062;10.010;2024-01-15T07:52:26;1.50;99.90
59282;DHT22;45054;52.062;10.010;2024-01-15T07:54:52;1.60;99.90
59282;DHT22;45054;52.062;10.010;2024-01-15T07:57:17;1.60;99.90
59282;DHT22;45054;52.062;10.010;2024-01-15T07:59:43;1.60;99.90
59282;DHT22;45054;52.062;10.010;2024-01-15T08:02:08;1.60;99.90
59282;DHT22;45054;52.062;10.010;2024-01-15T08:04:36;1.60;99.90
59282;DHT22;45054;52.062;10.010;2024-01-15T08:07:02;1.70;99.90
59282;DHT22;45054;52.062;10.010;2024-01-15T08:09:27;1.80;99.90
59282;DHT22;45054;52.062;10.010;2024-01-15T08:11:53;1.80;99.90
59282;DHT22;45054;52.062;10.010;2024-01-15T08:14:19;1.80;99.90
59282;DHT22;45054;52.062;10.010;2024-01-15T08:16:44;1.80;99.90
59282;DHT22;45054;52.062;10.010;2024-01-15T08:19:10;1.80;99.90
59282;DHT22;45054;52.062;10.010;2024-01-15T08:21:37;1.80;99.90
59282;DHT22;45054;52.062;10.010;2024-01-15T08:24:03;1.80;99.90
59282;DHT22;45054;52.062;10.010;2024-01-15T08:26:29;1.90;99.90
59282;DHT22;45054;52.062;10.010;2024-01-15T08:28:54;1.90;99.90
59282;DHT22;45054;52.062;10.010;2024-01-15T08:31:20;1.90;99.90
59282;DHT22;45054;52.062;10.010;2024-01-15T08:33:46;1.80;99.90
59282;DHT22;45054;52.062;10.010;2024-01-15T08:36:11;1.80;99.90
59282;DHT22;45054;52.062;10.010;2024-01-15T08:38:38;1.70;99.90
59282;DHT22;45054;52.062;10.010;2024-01-15T08:41:04;1.70;99.90
59282;DHT22;45054;52.062;10.010;2024-01-15T08:43:30;1.70;99.90
59282;DHT22;45054;52.062;10.010;2024-01-15T08:45:55;1.80;99.90
59282;DHT22;45054;52.062;10.010;2024-01-15T08:48:21;1.80;99.90
59282;DHT22;45054;52.062;10.010;2024-01-15T08:50:46;1.90;99.90
59282;DHT22;45054;52.062;10.010;2024-01-15T08:53:12;1.90;99.90
59282;DHT22;45054;52.062;10.010;2024-01-15T08:55:39;1.90;99.90
59282;DHT22;45054;52.062;10.010;2024-01-15T08:58:05;1.90;99.90
59282;DHT22;45054;52.062;10.010;2024-01-15T09:00:30;1.80;99.90
59282;DHT22;45054;52.062;10.010;2024-01-15T09:02:56;1.90;99.90
59282;DHT22;45054;52.062;10.010;2024-01-15T09:05:22;1.80;99.90
59282;DHT22;45054;52.062;10.010;2024-01-15T09:07:47;1.80;99.90
59282;DHT22;45054;52.062;10.010;2024-01-15T09:10:13;1.80;99.90
59282;DHT22;45054;52.062;10.010;2024-01-15T09:12:40;1.80;99.90
59282;DHT22;45054;52.062;10.010;2024-01-15T09:15:06;1.70;99.90
59282;DHT22;45054;52.062;10.010;2024-01-15T09:17:32;1.70;99.90
59282;DHT22;45054;52.062;10.010;2024-01-15T09:19:57;1.70;99.90
59282;DHT22;45054;52.062;10.010;2024-01-15T09:22:23;1.70;99.90
59282;DHT22;45054;52.062;10.010;2024-01-15T09:24:49;1.80;99.90
59282;DHT22;45054;52.062;10.010;2024-01-15T09:27:14;1.80;99.90
59282;DHT22;45054;52.062;10.010;2024-01-15T09:29:41;1.90;99.90
59282;DHT22;45054;52.062;10.010;2024-01-15T09:32:07;1.90;99.90
59282;DHT22;45054;52.062;10.010;2024-01-15T09:34:33;2.00;99.90
59282;DHT22;45054;52.062;10.010;2024-01-15T09:36:59;2.00;99.90
59282;DHT22;45054;52.062;10.010;2024-01-15T09:39:24;2.00;99.90
59282;DHT22;45054;52.062;10.010;2024-01-15T09:41:50;2.10;99.90
59282;DHT22;45054;52.062;10.010;2024-01-15T09:44:16;2.10;99.90
59282;DHT22;45054;52.062;10.010;2024-01-15T09:46:44;2.10;99.90
59282;DHT22;45054;52.062;10.010;2024-01-15T09:49:09;2.00;99.90
59282;DHT22;45054;52.062;10.010;2024-01-15T09:51:35;2.10;99.90
59282;DHT22;45054;52.062;10.010;2024-01-15T09:54:01;2.00;99.90
59282;DHT22;45054;52.062;10.010;2024-01-15T09:56:27;2.00;99.90
59282;DHT22;45054;52.062;10.010;2024-01-15T09:58:53;2.10;99.90
59282;DHT22;45054;52.062;10.010;2024-01-15T10:01:20;2.10;99.90
59282;DHT22;45054;52.062;10.010;2024-01-15T10:03:47;2.20;99.90
59282;DHT22;45054;52.062;10.010;2024-01-15T10:06:15;2.00;99.90
59282;DHT22;45054;52.062;10.010;2024-01-15T10:08:41;2.00;99.90
59282;DHT22;45054;52.062;10.010;2024-01-15T10:11:06;2.00;99.90
59282;DHT22;45054;52.062;10.010;2024-01-15T10:13:32;1.90;99.90
59282;DHT22;45054;52.062;10.010;2024-01-15T10:15:58;2.10;99.90
59282;DHT22;45054;52.062;10.010;2024-01-15T10:18:25;2.10;99.90
59282;DHT22;45054;52.062;10.010;2024-01-15T10:20:52;2.30;99.90
59282;DHT22;45054;52.062;10.010;2024-01-15T10:23:19;2.40;99.90
59282;DHT22;45054;52.062;10.010;2024-01-15T10:25:44;2.30;99.90
59282;DHT22;45054;52.062;10.010;2024-01-15T10:28:10;2.30;99.90
59282;DHT22;45054;52.062;10.010;2024-01-15T10:30:35;2.30;99.90
59282;DHT22;45054;52.062;10.010;2024-01-15T10:33:03;2.20;99.90
59282;DHT22;45054;52.062;10.010;2024-01-15T10:35:30;2.20;99.90
59282;DHT22;45054;52.062;10.010;2024-01-15T10:37:57;2.10;99.90
59282;DHT22;45054;52.062;10.010;2024-01-15T10:40:23;2.20;99.90
59282;DHT22;45054;52.062;10.010;2024-01-15T10:42:49;2.30;99.90
59282;DHT22;45054;52.062;10.010;2024-01-15T10:45:14;2.30;99.90
59282;DHT22;45054;52.062;10.010;2024-01-15T10:47:40;2.40;99.90
59282;DHT22;45054;52.062;10.010;2024-01-15T10:50:07;2.40;99.90
59282;DHT22;45054;52.062;10.010;2024-01-15T10:52:34;2.50;99.90
59282;DHT22;45054;52.062;10.010;2024-01-15T10:55:03;2.50;99.90
59282;DHT22;45054;52.062;10.010;2024-01-15T10:57:29;2.60;99.90
59282;DHT22;45054;52.062;10.010;2024-01-15T10:59:55;2.70;99.90
59282;DHT22;45054;52.062;10.010;2024-01-15T11:02:21;2.60;99.90
59282;DHT22;45054;52.062;10.010;2024-01-15T11:04:46;2.50;99.90
59282;DHT22;45054;52.062;10.010;2024-01-15T11:07:13;2.30;99.90
59282;DHT22;45054;52.062;10.010;2024-01-15T11:09:39;2.30;99.90
59282;DHT22;45054;52.062;10.010;2024-01-15T11:12:10;2.30;99.90
59282;DHT22;45054;52.062;10.010;2024-01-15T11:14:39;2.30;99.90
59282;DHT22;45054;52.062;10.010;2024-01-15T11:17:05;2.40;99.90
59282;DHT22;45054;52.062;10.010;2024-01-15T11:19:37;2.40;99.90
59282;DHT22;45054;52.062;10.010;2024-01-15T11:22:03;2.40;99.90
59282;DHT22;45054;52.062;10.010;2024-01-15T11:24:39;2.50;99.90
59282;DHT22;45054;52.062;10.010;2024-01-15T11:27:05;2.50;99.90
59282;DHT22;45054;52.062;10.010;2024-01-15T11:29:33;2.50;99.90
59282;DHT22;45054;52.062;10.010;2024-01-15T11:32:03;2.50;99.90
59282;DHT22;45054;52.062;10.010;2024-01-15T11:34:52;2.40;99.90
59282;DHT22;45054;52.062;10.010;2024-01-15T11:37:18;2.40;99.90
59282;DHT22;45054;52.062;10.010;2024-01-15T11:39:44;2.40;99.90
59282;DHT22;45054;52.062;10.010;2024-01-15T11:42:11;2.40;99.90
59282;DHT22;45054;52.062;10.010;2024-01-15T11:44:38;2.40;99.90
59282;DHT22;45054;52.062;10.010;2024-01-15T11:47:05;2.30;99.90
59282;DHT22;45054;52.062;10.010;2024-01-15T11:49:48;2.40;99.90
59282;DHT22;45054;52.062;10.010;2024-01-15T11:52:18;2.40;99.90
59282;DHT22;45054;52.062;10.010;2024-01-15T11:54:49;2.50;99.90
59282;DHT22;45054;52.062;10.010;2024-01-15T11:57:22;2.60;99.90
59282;DHT22;45054;52.062;10.010;2024-01-15T11:59:51;2.40;99.90
59282;DHT22;45054;52.062;10.010;2024-01-15T12:02:17;2.40;99.90
59282;DHT22;45054;52.062;10.010;2024-01-15T12:04:42;2.50;99.90
59282;DHT22;45054;52.062;10.010;2024-01-15T12:07:08;2.50;99.90
59282;DHT22;45054;52.062;10.010;2024-01-15T12:09:33;2.50;99.90
59282;DHT22;45054;52.062;10.010;2024-01-15T12:12:03;2.50;99.90
59282;DHT22;45054;52.062;10.010;2024-01-15T12:14:32;2.50;99.90
59282;DHT22;45054;52.062;10.010;2024-01-15T12:17:00;2.50;99.90
59282;DHT22;45054;52.062;10.010;2024-01-15T12:19:25;2.40;99.90
59282;DHT22;45054;52.062;10.010;2024-01-15T12:21:51;2.50;99.90
59282;DHT22;45054;52.062;10.010;2024-01-15T12:24:17;2.50;99.90
59282;DHT22;45054;52.062;10.010;2024-01-15T12:26:42;2.50;99.90
59282;DHT22;45054;52.062;10.010;2024-01-15T12:29:09;2.60;99.90
59282;DHT22;45054;52.062;10.010;2024-01-15T12:31:35;2.60;99.90
59282;DHT22;45054;52.062;10.010;2024-01-15T12:34:02;2.60;99.90
59282;DHT22;45054;52.062;10.010;2024-01-15T12:36:30;2.60;99.90
59282;DHT22;45054;52.062;10.010;2024-01-15T12:38:59;2.50;99.90
59282;DHT22;45054;52.062;10.010;2024-01-15T12:41:24;2.50;99.90
59282;DHT22;45054;52.062;10.010;2024-01-15T12:43:50;2.60;99.90
59282;DHT22;45054;52.062;10.010;2024-01-15T12:46:16;2.70;99.90
59282;DHT22;45054;52.062;10.010;2024-01-15T12:48:41;2.60;99.90
59282;DHT22;45054;52.062;10.010;2024-01-15T12:51:09;2.60;99.90
59282;DHT22;45054;52.062;10.010;2024-01-15T12:53:34;2.60;99.90
59282;DHT22;45054;52.062;10.010;2024-01-15T12:56:00;2.50;99.90
59282;DHT22;45054;52.062;10.010;2024-01-15T12:58:25;2.40;99.90
59282;DHT22;45054;52.062;10.010;2024-01-15T13:00:51;2.40;99.90
59282;DHT22;45054;52.062;10.010;2024-01-15T13:03:16;2.30;99.90
59282;DHT22;45054;52.062;10.010;2024-01-15T13:05:42;2.50;99.90
59282;DHT22;45054;52.062;10.010;2024-01-15T13:08:09;2.50;99.90
59282;DHT22;45054;52.062;10.010;2024-01-15T13:10:34;2.50;99.90
59282;DHT22;45054;52.062;10.010;2024-01-15T13:13:00;2.50;99.90
59282;DHT22;45054;52.062;10.010;2024-01-15T13:15:26;2.50;99.90
59282;DHT22;45054;52.062;10.010;2024-01-15T13:17:51;2.50;99.90
59282;DHT22;45054;52.062;10.010;2024-01-15T13:20:17;2.40;99.90
59282;DHT22;45054;52.062;10.010;2024-01-15T13:22:42;2.50;99.90
59282;DHT22;45054;52.062;10.010;2024-01-15T13:25:09;2.50;99.90
59282;DHT22;45054;52.062;10.010;2024-01-15T13:27:35;2.50;99.90
59282;DHT22;45054;52.062;10.010;2024-01-15T13:30:00;2.50;99.90
59282;DHT22;45054;52.062;10.010;2024-01-15T13:32:28;2.40;99.90
59282;DHT22;45054;52.062;10.010;2024-01-15T13:34:54;2.40;99.90
59282;DHT22;45054;52.062;10.010;2024-01-15T13:37:19;2.30;99.90
59282;DHT22;45054;52.062;10.010;2024-01-15T13:39:45;2.40;99.90
59282;DHT22;45054;52.062;10.010;2024-01-15T13:42:12;2.50;99.90
59282;DHT22;45054;52.062;10.010;2024-01-15T13:44:38;2.50;99.90
59282;DHT22;45054;52.062;10.010;2024-01-15T13:47:03;2.40;99.90
59282;DHT22;45054;52.062;10.010;2024-01-15T13:49:29;2.40;99.90
59282;DHT22;45054;52.062;10.010;2024-01-15T13:51:54;2.40;99.90
59282;DHT22;45054;52.062;10.010;2024-01-15T13:54:20;2.40;99.90
59282;DHT22;45054;52.062;10.010;2024-01-15T13:56:46;2.40;99.90
59282;DHT22;45054;52.062;10.010;2024-01-15T13:59:12;2.40;99.90
59282;DHT22;45054;52.062;10.010;2024-01-15T14:01:38;2.50;99.90
59282;DHT22;45054;52.062;10.010;2024-01-15T14:04:04;2.50;99.90
59282;DHT22;45054;52.062;10.010;2024-01-15T14:06:29;2.60;99.90
59282;DHT22;45054;52.062;10.010;2024-01-15T14:08:55;2.50;99.90
59282;DHT22;45054;52.062;10.010;2024-01-15T14:11:20;2.40;99.90
59282;DHT22;45054;52.062;10.010;2024-01-15T14:13:46;2.50;99.90
59282;DHT22;45054;52.062;10.010;2024-01-15T14:16:13;2.50;99.90
59282;DHT22;45054;52.062;10.010;2024-01-15T14:18:38;2.50;99.90
59282;DHT22;45054;52.062;10.010;2024-01-15T14:21:04;2.50;99.90
59282;DHT22;45054;52.062;10.010;2024-01-15T14:23:30;2.40;99.90
59282;DHT22;45054;52.062;10.010;2024-01-15T14:25:56;2.30;99.90
59282;DHT22;45054;52.062;10.010;2024-01-15T14:28:22;2.30;99.90
59282;DHT22;45054;52.062;10.010;2024-01-15T14:30:47;2.20;99.90
59282;DHT22;45054;52.062;10.010;2024-01-15T14:33:14;2.10;99.90
59282;DHT22;45054;52.062;10.010;2024-01-15T14:35:40;2.00;99.90
59282;DHT22;45054;52.062;10.010;2024-01-15T14:38:05;2.00;99.90
59282;DHT22;45054;52.062;10.010;2024-01-15T14:40:31;2.00;99.90
59282;DHT22;45054;52.062;10.010;2024-01-15T14:42:56;2.10;99.90
59282;DHT22;45054;52.062;10.010;2024-01-15T14:45:22;2.10;99.90
59282;DHT22;45054;52.062;10.010;2024-01-15T14:47:48;2.10;99.90
59282;DHT22;45054;52.062;10.010;2024-01-15T14:50:15;2.00;99.90
59282;DHT22;45054;52.062;10.010;2024-01-15T14:52:40;2.00;99.90
59282;DHT22;45054;52.062;10.010;2024-01-15T14:55:07;2.00;99.90
59282;DHT22;45054;52.062;10.010;2024-01-15T14:57:33;2.00;99.90
59282;DHT22;45054;52.062;10.010;2024-01-15T14:59:58;2.00;99.90
59282;DHT22;45054;52.062;10.010;2024-01-15T15:02:24;2.00;99.90
59282;DHT22;45054;52.062;10.010;2024-01-15T15:04:50;1.90;99.90
59282;DHT22;45054;52.062;10.010;2024-01-15T15:07:16;1.90;99.90
59282;DHT22;45054;52.062;10.010;2024-01-15T15:09:42;1.80;99.90
59282;DHT22;45054;52.062;10.010;2024-01-15T15:12:08;1.70;99.90
59282;DHT22;45054;52.062;10.010;2024-01-15T15:14:33;1.60;99.90
59282;DHT22;45054;52.062;10.010;2024-01-15T15:16:59;1.50;99.90
59282;DHT22;45054;52.062;10.010;2024-01-15T15:19:24;1.50;99.90
59282;DHT22;45054;52.062;10.010;2024-01-15T15:21:50;1.50;99.90